Time;durP1;ratioP1;P1;durP2;ratioP2;P2;SDS_P1;SDS_P2;PMS_P1;PMS_P2;Temp;Humidity;BMP_temperature;BMP_pressure;BME280_temperature;BME280_humidity;BME280_pressure;Samples;Min_cycle;Max_cycle;Signal;HPM_P1;HPM_P2
2023/11/06 00:01:50;;;;;;;0.60;0.60;;;8.50;99.90;;;;;;5005524;28;20488;-29
2023/11/06 00:04:16;;;;;;;1.10;1.10;;;8.50;99.90;;;;;;5007506;28;20026;-32
2023/11/06 00:06:42;;;;;;;0.63;0.63;;;8.40;99.90;;;;;;5006151;28;20033;-30
2023/11/06 00:09:08;;;;;;;1.05;0.77;;;8.40;99.90;;;;;;5005754;28;20041;-32
2023/11/06 00:11:34;;;;;;;0.60;0.60;;;8.40;99.90;;;;;;5003975;28;20080;-31
2023/11/06 00:13:59;;;;;;;0.52;0.52;;;8.30;99.90;;;;;;5004918;28;20022;-30
2023/11/06 00:16:25;;;;;;;1.13;0.73;;;8.30;99.90;;;;;;5004546;28;20029;-30
2023/11/06 00:18:51;;;;;;;0.50;0.50;;;8.40;99.90;;;;;;5004778;28;20076;-31
2023/11/06 00:21:17;;;;;;;1.50;0.50;;;8.40;99.90;;;;;;5003877;28;20095;-34
2023/11/06 00:23:44;;;;;;;0.60;0.60;;;8.40;99.90;;;;;;5004002;28;20033;-34
2023/11/06 00:26:13;;;;;;;1.77;0.70;;;8.30;99.90;;;;;;5001924;28;20022;-34
2023/11/06 00:28:42;;;;;;;3.83;0.70;;;8.30;99.90;;;;;;5002191;28;20037;-34
2023/11/06 00:31:11;;;;;;;2.60;1.17;;;8.40;99.90;;;;;;5003098;28;20034;-32
2023/11/06 00:33:42;;;;;;;;;;;8.40;99.90;;;;;;5002739;28;20034;-32
2023/11/06 00:36:23;;;;;;;0.95;0.43;;;8.40;99.90;;;;;;5002474;28;20825;-36
2023/11/06 00:38:49;;;;;;;0.60;0.60;;;8.40;99.90;;;;;;5002470;28;20034;-31
2023/11/06 00:41:15;;;;;;;0.75;0.75;;;8.40;99.90;;;;;;5002245;28;20045;-32
2023/11/06 00:43:42;;;;;;;0.70;0.70;;;8.40;99.90;;;;;;5004108;28;20068;-36
2023/11/06 00:46:08;;;;;;;2.40;0.63;;;8.40;99.90;;;;;;5003933;28;20026;-32
2023/11/06 00:48:34;;;;;;;0.60;0.60;;;8.40;99.90;;;;;;4986242;28;20380;-32
2023/11/06 00:50:59;;;;;;;1.17;0.70;;;8.40;99.90;;;;;;5000863;28;20040;-32
2023/11/06 00:53:25;;;;;;;1.05;0.57;;;8.30;99.90;;;;;;5002173;28;20034;-35
2023/11/06 00:55:52;;;;;;;0.93;0.70;;;8.30;99.90;;;;;;5002753;28;20041;-33
2023/11/06 00:58:18;;;;;;;1.23;0.60;;;8.30;99.90;;;;;;5002493;28;20022;-35
2023/11/06 01:00:44;;;;;;;1.08;0.82;;;8.30;99.90;;;;;;5003075;28;20076;-32
2023/11/06 01:03:12;;;;;;;1.90;0.70;;;8.30;99.90;;;;;;5002685;28;20057;-32
2023/11/06 01:05:38;;;;;;;0.50;0.50;;;8.30;99.90;;;;;;5001817;28;20888;-33
2023/11/06 01:08:05;;;;;;;0.70;0.70;;;8.30;99.90;;;;;;5003413;28;20041;-31
2023/11/06 01:10:34;;;;;;;1.23;0.80;;;8.30;99.90;;;;;;5001372;28;20034;-32
2023/11/06 01:13:00;;;;;;;1.10;0.60;;;8.30;99.90;;;;;;5006417;28;20053;-32
2023/11/06 01:15:27;;;;;;;1.17;0.60;;;8.30;99.90;;;;;;5005581;28;20033;-33
2023/11/06 01:17:53;;;;;;;3.90;1.10;;;8.30;99.90;;;;;;5005630;28;20076;-31
2023/11/06 01:20:20;;;;;;;0.85;0.60;;;8.30;99.90;;;;;;5004569;28;20037;-37
2023/11/06 01:22:47;;;;;;;0.50;0.50;;;8.30;99.90;;;;;;5006441;28;20030;-32
2023/11/06 01:25:13;;;;;;;0.77;0.77;;;8.40;99.90;;;;;;5006184;28;20041;-33
2023/11/06 01:27:39;;;;;;;0.52;0.50;;;8.40;99.90;;;;;;5005010;28;20033;-33
2023/11/06 01:30:05;;;;;;;1.88;1.17;;;8.40;99.90;;;;;;5003381;28;20034;-34
2023/11/06 01:32:30;;;;;;;1.90;1.02;;;8.40;99.90;;;;;;5006482;28;20045;-33
2023/11/06 01:34:56;;;;;;;1.95;0.65;;;8.40;99.90;;;;;;5003099;28;20045;-32
2023/11/06 01:37:22;;;;;;;0.60;0.60;;;8.30;99.90;;;;;;5003996;28;20022;-32
2023/11/06 01:39:47;;;;;;;3.15;0.80;;;8.30;99.90;;;;;;4984870;28;20053;-32
2023/11/06 01:42:13;;;;;;;1.27;0.70;;;8.20;99.90;;;;;;5005626;28;20034;-31
2023/11/06 01:44:39;;;;;;;2.13;0.75;;;8.20;99.90;;;;;;4988810;28;20034;-32
2023/11/06 01:47:08;;;;;;;1.65;0.50;;;8.20;99.90;;;;;;5006280;28;22005;-33
2023/11/06 01:49:35;;;;;;;0.73;0.70;;;8.20;99.90;;;;;;5005303;28;20037;-32
2023/11/06 01:52:02;;;;;;;1.38;0.60;;;8.20;99.90;;;;;;5005311;28;20606;-34
2023/11/06 01:54:28;;;;;;;2.35;0.70;;;8.10;99.90;;;;;;5005134;28;20113;-32
2023/11/06 01:56:54;;;;;;;1.10;0.63;;;8.10;99.90;;;;;;5001983;28;20076;-31
2023/11/06 01:59:20;;;;;;;0.63;0.63;;;8.10;99.90;;;;;;5006364;28;20033;-32
2023/11/06 02:01:50;;;;;;;0.52;0.52;;;8.10;99.90;;;;;;5003979;28;20030;-32
2023/11/06 02:04:15;;;;;;;0.77;0.77;;;8.10;99.90;;;;;;5003214;28;20052;-32
2023/11/06 02:06:43;;;;;;;1.35;0.50;;;8.10;99.90;;;;;;5000579;28;21989;-36
2023/11/06 02:09:09;;;;;;;0.50;0.50;;;8.00;99.90;;;;;;4985290;28;20123;-31
2023/11/06 02:11:35;;;;;;;0.50;0.50;;;8.00;99.90;;;;;;5003704;28;20039;-33
2023/11/06 02:14:00;;;;;;;0.60;0.60;;;8.00;99.90;;;;;;5003458;28;20038;-34
2023/11/06 02:16:26;;;;;;;1.23;0.60;;;7.90;99.90;;;;;;5002958;28;20030;-34
2023/11/06 02:18:52;;;;;;;0.55;0.50;;;8.00;99.90;;;;;;5005908;28;20484;-35
2023/11/06 02:21:19;;;;;;;0.70;0.57;;;8.00;99.90;;;;;;5006159;28;20033;-37
2023/11/06 02:23:45;;;;;;;0.63;0.60;;;8.10;99.90;;;;;;5004470;28;20387;-33
2023/11/06 02:26:10;;;;;;;1.67;1.02;;;8.10;99.90;;;;;;5005229;28;20041;-33
2023/11/06 02:28:36;;;;;;;1.08;0.50;;;8.10;99.90;;;;;;5004441;28;20084;-38
2023/11/06 02:31:02;;;;;;;0.90;0.50;;;8.20;99.90;;;;;;5004978;28;20491;-32
2023/11/06 02:33:28;;;;;;;0.55;0.52;;;8.10;99.90;;;;;;5003121;28;20044;-33
2023/11/06 02:35:53;;;;;;;1.05;1.00;;;8.10;99.90;;;;;;5004233;28;20041;-31
2023/11/06 02:38:19;;;;;;;1.10;0.60;;;8.20;99.90;;;;;;5004019;28;20137;-34
2023/11/06 02:40:44;;;;;;;1.45;0.50;;;8.20;99.90;;;;;;5004631;28;20487;-35
2023/11/06 02:43:10;;;;;;;1.35;0.50;;;8.20;99.90;;;;;;5005491;28;20635;-40
2023/11/06 02:45:36;;;;;;;0.57;0.57;;;8.20;99.90;;;;;;5004196;28;20125;-39
2023/11/06 02:48:02;;;;;;;0.75;0.75;;;8.20;99.90;;;;;;5002412;28;20046;-41
2023/11/06 02:50:27;;;;;;;2.55;0.70;;;8.10;99.90;;;;;;5003093;28;20626;-41
2023/11/06 02:52:58;;;;;;;0.60;0.60;;;8.10;99.90;;;;;;4987842;28;20037;-40
2023/11/06 02:55:24;;;;;;;3.13;0.70;;;8.20;99.90;;;;;;5004544;28;20041;-49
2023/11/06 02:57:49;;;;;;;0.73;0.63;;;8.10;99.90;;;;;;5004341;28;20411;-39
2023/11/06 03:00:15;;;;;;;1.48;0.50;;;8.10;99.90;;;;;;5004929;28;20033;-39
2023/11/06 03:02:41;;;;;;;1.73;0.70;;;8.00;99.90;;;;;;4998920;28;20096;-37
2023/11/06 03:05:07;;;;;;;0.68;0.50;;;8.00;99.90;;;;;;5002074;28;20431;-39
2023/11/06 03:07:33;;;;;;;0.50;0.50;;;8.00;99.90;;;;;;5005092;28;20061;-39
2023/11/06 03:09:59;;;;;;;0.50;0.50;;;8.00;99.90;;;;;;5004300;28;20117;-39
2023/11/06 03:12:25;;;;;;;2.70;0.80;;;7.90;99.90;;;;;;5002917;28;20117;-40
2023/11/06 03:14:51;;;;;;;0.40;0.40;;;8.00;99.90;;;;;;5004421;28;20037;-38
2023/11/06 03:17:18;;;;;;;0.55;0.50;;;7.90;99.90;;;;;;5004606;28;20026;-37
2023/11/06 03:19:43;;;;;;;2.00;0.50;;;7.90;99.90;;;;;;5003702;28;20026;-39
2023/11/06 03:22:09;;;;;;;1.35;0.50;;;7.90;99.90;;;;;;5003283;28;20033;-37
2023/11/06 03:24:35;;;;;;;3.30;0.98;;;7.80;99.90;;;;;;5002401;28;20048;-39
2023/11/06 03:27:00;;;;;;;0.55;0.55;;;7.80;99.90;;;;;;5002133;28;20022;-36
2023/11/06 03:29:26;;;;;;;1.13;0.80;;;7.70;99.90;;;;;;5001577;28;20034;-35
2023/11/06 03:31:52;;;;;;;1.50;0.68;;;7.70;99.90;;;;;;5003177;28;20104;-39
2023/11/06 03:34:18;;;;;;;1.00;0.50;;;7.60;99.90;;;;;;5003335;28;20049;-35
2023/11/06 03:36:45;;;;;;;0.50;0.50;;;7.50;99.90;;;;;;5004144;28;20053;-38
2023/11/06 03:39:11;;;;;;;1.40;0.77;;;7.50;99.90;;;;;;5002824;28;20512;-39
2023/11/06 03:41:37;;;;;;;0.47;0.40;;;7.60;99.90;;;;;;5003741;28;20037;-34
2023/11/06 03:44:03;;;;;;;1.55;0.60;;;7.50;99.90;;;;;;5003167;28;20026;-40
2023/11/06 03:46:29;;;;;;;1.02;0.60;;;7.50;99.90;;;;;;5001126;28;20096;-39
2023/11/06 03:48:54;;;;;;;0.77;0.70;;;7.50;99.90;;;;;;5003861;28;20037;-45
2023/11/06 03:51:20;;;;;;;0.90;0.50;;;7.50;99.90;;;;;;5003447;28;20038;-36
2023/11/06 03:53:45;;;;;;;1.25;0.88;;;7.60;99.90;;;;;;4985271;28;20598;-40
2023/11/06 03:56:11;;;;;;;1.70;0.60;;;7.50;99.90;;;;;;5002327;28;20041;-37
2023/11/06 03:58:37;;;;;;;1.42;0.70;;;7.50;99.90;;;;;;5000306;28;20033;-39
2023/11/06 04:01:03;;;;;;;1.13;0.70;;;7.50;99.90;;;;;;5003117;28;20046;-40
2023/11/06 04:03:29;;;;;;;1.40;0.90;;;7.50;99.90;;;;;;5000822;28;20030;-40
2023/11/06 04:05:55;;;;;;;1.63;1.20;;;7.50;99.90;;;;;;5002057;28;20046;-35
2023/11/06 04:08:21;;;;;;;1.08;0.63;;;7.50;99.90;;;;;;5004393;28;20037;-38
2023/11/06 04:10:48;;;;;;;0.70;0.70;;;7.60;99.90;;;;;;4982121;28;20033;-38
2023/11/06 04:13:14;;;;;;;0.60;0.60;;;7.60;99.90;;;;;;5001231;28;20452;-39
2023/11/06 04:15:39;;;;;;;2.00;0.90;;;7.60;99.90;;;;;;5003680;28;20042;-40
2023/11/06 04:18:05;;;;;;;0.73;0.73;;;7.60;99.90;;;;;;5003520;28;20542;-39
2023/11/06 04:20:30;;;;;;;1.77;0.90;;;7.60;99.90;;;;;;5002585;28;20030;-39
2023/11/06 04:22:56;;;;;;;1.20;0.57;;;7.60;99.90;;;;;;5001939;28;20088;-39
2023/11/06 04:25:22;;;;;;;0.77;0.60;;;7.50;99.90;;;;;;5001441;28;20026;-40
2023/11/06 04:27:47;;;;;;;0.82;0.77;;;7.50;99.90;;;;;;4999358;28;20105;-39
2023/11/06 04:30:13;;;;;;;0.60;0.60;;;7.50;99.90;;;;;;5003319;28;20079;-38
2023/11/06 04:32:39;;;;;;;0.75;0.60;;;7.50;99.90;;;;;;5001021;28;20112;-36
2023/11/06 04:35:05;;;;;;;2.80;0.95;;;7.50;99.90;;;;;;5002580;28;20050;-38
2023/11/06 04:37:34;;;;;;;2.58;0.80;;;7.40;99.90;;;;;;5000828;28;20388;-39
2023/11/06 04:40:00;;;;;;;0.80;0.52;;;7.40;99.90;;;;;;5003907;28;20494;-39
2023/11/06 04:42:26;;;;;;;2.92;0.93;;;7.40;99.90;;;;;;5000366;28;20022;-39
2023/11/06 04:44:51;;;;;;;0.73;0.73;;;7.40;99.90;;;;;;5003933;28;20041;-39
2023/11/06 04:47:17;;;;;;;0.80;0.80;;;7.40;99.90;;;;;;5007240;28;20033;-34
2023/11/06 04:49:43;;;;;;;2.60;0.73;;;7.40;99.90;;;;;;5008175;28;20054;-36
2023/11/06 04:52:08;;;;;;;0.65;0.65;;;7.40;99.90;;;;;;5006285;28;20120;-37
2023/11/06 04:54:34;;;;;;;0.85;0.80;;;7.50;99.90;;;;;;5003119;28;20562;-39
2023/11/06 04:57:00;;;;;;;1.92;0.82;;;7.60;99.90;;;;;;5008408;28;20025;-40
2023/11/06 04:59:26;;;;;;;1.95;1.23;;;7.60;99.90;;;;;;5005741;28;20375;-40
2023/11/06 05:01:52;;;;;;;1.83;0.85;;;7.60;99.90;;;;;;5005768;28;20061;-40
2023/11/06 05:04:18;;;;;;;0.98;0.70;;;7.70;99.90;;;;;;5007490;28;20018;-38
2023/11/06 05:06:43;;;;;;;1.30;0.60;;;7.70;99.90;;;;;;5007490;28;20023;-38
2023/11/06 05:09:10;;;;;;;0.90;0.70;;;7.70;99.90;;;;;;5005682;28;20034;-40
2023/11/06 05:11:36;;;;;;;1.25;0.70;;;7.70;99.90;;;;;;5007193;28;20269;-40
2023/11/06 05:14:02;;;;;;;1.27;0.70;;;7.60;99.90;;;;;;5008194;28;20103;-31
2023/11/06 05:16:28;;;;;;;0.77;0.70;;;7.60;99.90;;;;;;5008688;28;20574;-30
2023/11/06 05:18:54;;;;;;;1.55;0.80;;;7.60;99.90;;;;;;5008683;28;20018;-31
2023/11/06 05:21:26;;;;;;;0.47;0.47;;;7.60;99.90;;;;;;5007546;28;20399;-31
2023/11/06 05:23:52;;;;;;;1.95;1.17;;;7.50;99.90;;;;;;5010144;28;20022;-31
2023/11/06 05:26:18;;;;;;;1.10;0.52;;;7.50;99.90;;;;;;5008673;28;20041;-34
2023/11/06 05:28:44;;;;;;;1.95;0.80;;;7.50;99.90;;;;;;5008746;28;20032;-30
2023/11/06 05:31:10;;;;;;;0.65;0.65;;;7.50;99.90;;;;;;4996105;28;20100;-31
2023/11/06 05:33:36;;;;;;;1.33;0.85;;;7.50;99.90;;;;;;5007959;28;20547;-31
2023/11/06 05:36:02;;;;;;;1.40;0.50;;;7.50;99.90;;;;;;5007839;28;20121;-30
2023/11/06 05:38:28;;;;;;;0.65;0.60;;;7.60;99.90;;;;;;5008675;28;20105;-30
2023/11/06 05:40:53;;;;;;;0.60;0.60;;;7.70;99.90;;;;;;5002073;28;20054;-30
2023/11/06 05:43:19;;;;;;;1.40;0.80;;;7.70;99.90;;;;;;5011484;28;20526;-32
2023/11/06 05:45:45;;;;;;;2.00;0.50;;;7.80;99.90;;;;;;5008918;28;20120;-30
2023/11/06 05:48:10;;;;;;;0.65;0.65;;;7.80;99.90;;;;;;5006702;28;20026;-33
2023/11/06 05:50:36;;;;;;;1.20;1.10;;;7.80;99.90;;;;;;5007449;28;20060;-31
2023/11/06 05:53:02;;;;;;;1.85;0.70;;;7.80;99.90;;;;;;5007382;28;20041;-30
2023/11/06 05:55:28;;;;;;;3.97;1.00;;;7.80;99.90;;;;;;5008058;28;20435;-30
2023/11/06 05:57:53;;;;;;;0.98;0.65;;;7.70;99.90;;;;;;5006618;28;20030;-31
2023/11/06 06:00:20;;;;;;;0.80;0.80;;;7.80;99.90;;;;;;5002539;28;20061;-31
2023/11/06 06:02:45;;;;;;;1.67;0.70;;;7.80;99.90;;;;;;5006316;28;20061;-31
2023/11/06 06:05:11;;;;;;;0.95;0.63;;;7.70;99.90;;;;;;5004811;28;20061;-30
2023/11/06 06:07:37;;;;;;;1.10;1.00;;;7.70;99.90;;;;;;5007351;28;20030;-31
2023/11/06 06:10:04;;;;;;;1.63;1.10;;;7.70;99.90;;;;;;5007700;28;20037;-31
2023/11/06 06:12:32;;;;;;;1.63;1.10;;;7.70;99.90;;;;;;5007362;28;20048;-30
2023/11/06 06:14:58;;;;;;;2.50;0.90;;;7.70;99.90;;;;;;5004307;28;20667;-30
2023/11/06 06:17:24;;;;;;;2.05;0.70;;;7.60;99.90;;;;;;5006159;28;20113;-36
2023/11/06 06:19:49;;;;;;;0.60;0.60;;;7.60;99.90;;;;;;5004924;28;20037;-30
2023/11/06 06:22:15;;;;;;;0.60;0.55;;;7.60;99.90;;;;;;5003500;28;20188;-33
2023/11/06 06:24:42;;;;;;;2.80;1.15;;;7.70;99.90;;;;;;5002219;28;20029;-38
2023/11/06 06:27:08;;;;;;;1.85;0.70;;;7.70;99.90;;;;;;5004764;28;20434;-37
2023/11/06 06:29:34;;;;;;;1.23;0.88;;;7.70;99.90;;;;;;5005980;28;20034;-39
2023/11/06 06:32:00;;;;;;;2.08;0.98;;;7.70;99.90;;;;;;5002143;28;20108;-40
2023/11/06 06:34:26;;;;;;;3.65;1.25;;;7.70;99.90;;;;;;5005857;28;20121;-39
2023/11/06 06:36:51;;;;;;;0.98;0.60;;;7.70;99.90;;;;;;5003446;28;20381;-40
2023/11/06 06:39:17;;;;;;;0.57;0.57;;;7.80;99.90;;;;;;5010417;28;20036;-35
2023/11/06 06:41:43;;;;;;;0.77;0.77;;;7.80;99.90;;;;;;5007263;28;20029;-40
2023/11/06 06:44:08;;;;;;;1.30;0.80;;;7.70;99.90;;;;;;5007765;28;20084;-39
2023/11/06 06:46:34;;;;;;;1.90;0.88;;;7.70;99.90;;;;;;5009042;28;20114;-40
2023/11/06 06:49:00;;;;;;;1.83;0.95;;;7.80;99.90;;;;;;5007662;28;20353;-40
2023/11/06 06:51:25;;;;;;;1.45;0.90;;;7.80;99.90;;;;;;5005433;28;20034;-35
2023/11/06 06:53:51;;;;;;;4.82;0.85;;;7.80;99.90;;;;;;5004558;28;20030;-39
2023/11/06 06:56:17;;;;;;;0.90;0.57;;;7.80;99.90;;;;;;5003302;28;20073;-36
2023/11/06 06:58:43;;;;;;;1.00;0.85;;;7.80;99.90;;;;;;5001287;28;20105;-39
2023/11/06 07:01:09;;;;;;;0.70;0.70;;;7.90;99.90;;;;;;5007195;28;20468;-39
2023/11/06 07:03:37;;;;;;;3.70;1.05;;;7.90;99.90;;;;;;5007877;28;20029;-39
2023/11/06 07:06:11;;;;;;;1.55;0.63;;;8.00;99.90;;;;;;5004511;28;20472;-39
2023/11/06 07:08:36;;;;;;;1.50;0.50;;;7.90;99.90;;;;;;4989542;28;20604;-38
2023/11/06 07:11:02;;;;;;;0.95;0.95;;;8.00;99.90;;;;;;5007378;28;20068;-40
2023/11/06 07:13:28;;;;;;;0.60;0.60;;;8.00;99.90;;;;;;5007158;28;20033;-38
2023/11/06 07:15:54;;;;;;;1.70;0.70;;;8.10;99.90;;;;;;5007681;28;20461;-40
2023/11/06 07:18:19;;;;;;;1.13;0.63;;;8.10;99.90;;;;;;5006436;28;20030;-39
2023/11/06 07:20:45;;;;;;;2.47;1.02;;;8.20;99.90;;;;;;5009211;28;20053;-40
2023/11/06 07:23:11;;;;;;;0.60;0.60;;;8.10;99.90;;;;;;5006625;28;20112;-40
2023/11/06 07:25:37;;;;;;;0.95;0.77;;;8.10;99.90;;;;;;4996077;28;20120;-40
2023/11/06 07:28:04;;;;;;;1.80;0.80;;;8.10;99.90;;;;;;5001090;28;20037;-40
2023/11/06 07:30:29;;;;;;;0.70;0.70;;;8.20;99.90;;;;;;5003936;28;20044;-39
2023/11/06 07:32:55;;;;;;;2.10;1.13;;;8.20;99.90;;;;;;5006370;28;20030;-33
2023/11/06 07:35:21;;;;;;;0.68;0.60;;;8.30;99.90;;;;;;4990312;28;20073;-34
2023/11/06 07:37:46;;;;;;;1.50;0.80;;;8.30;99.90;;;;;;5002907;28;20467;-33
2023/11/06 07:40:13;;;;;;;1.00;0.95;;;8.30;99.90;;;;;;5005523;28;20026;-32
2023/11/06 07:42:42;;;;;;;2.00;0.93;;;8.40;99.90;;;;;;5006758;28;20034;-32
2023/11/06 07:45:08;;;;;;;0.63;0.63;;;8.40;99.90;;;;;;5005960;28;20038;-33
2023/11/06 07:47:36;;;;;;;0.80;0.80;;;8.40;99.90;;;;;;4988292;28;20034;-32
2023/11/06 07:50:05;;;;;;;1.00;0.80;;;8.40;99.90;;;;;;5004318;28;20056;-33
2023/11/06 07:52:31;;;;;;;0.70;0.70;;;8.40;99.90;;;;;;5003112;28;20033;-33
2023/11/06 07:54:58;;;;;;;0.95;0.80;;;8.50;99.90;;;;;;5006434;28;20038;-35
2023/11/06 07:57:24;;;;;;;3.45;0.98;;;8.40;99.90;;;;;;5006446;28;20607;-32
2023/11/06 07:59:51;;;;;;;1.90;0.90;;;8.60;99.90;;;;;;5006670;28;20051;-34
2023/11/06 08:02:17;;;;;;;1.67;0.80;;;8.60;99.90;;;;;;5004408;28;20077;-36
2023/11/06 08:04:45;;;;;;;1.30;0.70;;;8.70;99.90;;;;;;5005586;28;20046;-32
2023/11/06 08:07:13;;;;;;;;;;;8.80;99.90;;;;;;5005444;28;20053;-32
2023/11/06 08:09:39;;;;;;;0.80;0.75;;;8.80;99.90;;;;;;5007418;28;19913;-32
2023/11/06 08:12:09;;;;;;;0.82;0.60;;;8.80;99.90;;;;;;5000523;28;20026;-33
2023/11/06 08:14:35;;;;;;;0.60;0.60;;;8.90;99.90;;;;;;5004911;28;20029;-33
2023/11/06 08:17:00;;;;;;;0.93;0.93;;;8.90;99.90;;;;;;5004982;28;20502;-33
2023/11/06 08:19:26;;;;;;;2.35;0.60;;;9.00;99.90;;;;;;5003839;28;20069;-34
2023/11/06 08:21:52;;;;;;;1.50;0.90;;;9.10;99.90;;;;;;5007011;28;20437;-33
2023/11/06 08:24:17;;;;;;;1.30;0.60;;;9.10;99.90;;;;;;5006789;28;20109;-34
2023/11/06 08:26:44;;;;;;;1.52;0.60;;;9.20;99.90;;;;;;5006730;28;20033;-33
2023/11/06 08:29:11;;;;;;;0.73;0.55;;;9.30;99.90;;;;;;5005594;28;20768;-35
2023/11/06 08:31:37;;;;;;;1.08;0.70;;;9.40;99.90;;;;;;4995235;28;20578;-34
2023/11/06 08:34:03;;;;;;;0.95;0.70;;;9.50;99.90;;;;;;4992641;28;20049;-32
2023/11/06 08:36:29;;;;;;;2.47;0.60;;;9.50;99.90;;;;;;5007080;28;20038;-36
2023/11/06 08:38:55;;;;;;;0.93;0.73;;;9.60;99.90;;;;;;5004395;28;20087;-33
2023/11/06 08:41:21;;;;;;;1.15;0.50;;;9.70;99.90;;;;;;5004625;28;20045;-35
2023/11/06 08:43:47;;;;;;;1.65;0.82;;;9.80;99.90;;;;;;5005167;28;20025;-41
2023/11/06 08:46:13;;;;;;;0.60;0.60;;;9.90;99.90;;;;;;4990597;28;20033;-40
2023/11/06 08:48:41;;;;;;;0.95;0.70;;;10.00;99.90;;;;;;5001046;28;20124;-41
2023/11/06 08:51:07;;;;;;;1.48;0.57;;;10.00;99.90;;;;;;5000734;28;20033;-41
2023/11/06 08:53:33;;;;;;;1.08;0.63;;;10.10;99.90;;;;;;5007554;28;20026;-41
2023/11/06 08:55:58;;;;;;;0.60;0.60;;;10.10;99.90;;;;;;5005574;28;21523;-42
2023/11/06 08:58:25;;;;;;;5.57;0.73;;;10.20;99.90;;;;;;5004922;28;20747;-42
2023/11/06 09:00:50;;;;;;;2.63;0.60;;;10.20;99.90;;;;;;5001193;28;20026;-38
2023/11/06 09:03:16;;;;;;;1.23;0.55;;;10.30;99.90;;;;;;4999068;28;20040;-34
2023/11/06 09:05:42;;;;;;;1.75;0.80;;;10.30;99.90;;;;;;5003528;28;20034;-36
2023/11/06 09:08:09;;;;;;;0.57;0.50;;;10.40;99.90;;;;;;5001751;28;20055;-42
2023/11/06 09:10:34;;;;;;;0.95;0.50;;;10.60;99.90;;;;;;5001759;28;20030;-40
2023/11/06 09:13:01;;;;;;;0.88;0.47;;;10.60;99.90;;;;;;5004294;28;20053;-39
2023/11/06 09:15:26;;;;;;;0.60;0.60;;;10.70;99.90;;;;;;5004140;28;20057;-38
2023/11/06 09:17:53;;;;;;;0.70;0.70;;;10.70;99.90;;;;;;5003022;28;20029;-42
2023/11/06 09:20:19;;;;;;;0.50;0.40;;;10.80;99.90;;;;;;5005071;28;20037;-42
2023/11/06 09:22:46;;;;;;;3.83;0.68;;;10.80;99.90;;;;;;5002086;28;20692;-39
2023/11/06 09:25:12;;;;;;;0.73;0.68;;;10.90;99.90;;;;;;5004909;28;20392;-43
2023/11/06 09:27:38;;;;;;;1.17;0.40;;;11.00;99.90;;;;;;4999770;28;20030;-40
2023/11/06 09:30:08;;;;;;;0.65;0.40;;;11.00;99.90;;;;;;5004544;28;20107;-41
2023/11/06 09:32:33;;;;;;;0.52;0.50;;;11.10;99.90;;;;;;5007039;28;20033;-41
2023/11/06 09:35:03;;;;;;;1.75;0.57;;;11.10;99.90;;;;;;5006979;28;20049;-38
2023/11/06 09:37:30;;;;;;;1.02;0.75;;;11.10;99.90;;;;;;4986564;28;20120;-41
2023/11/06 09:39:56;;;;;;;0.63;0.50;;;11.30;99.90;;;;;;5006362;28;20216;-39
2023/11/06 09:42:22;;;;;;;0.68;0.68;;;11.30;99.90;;;;;;5009995;28;20041;-41
2023/11/06 09:44:48;;;;;;;0.60;0.60;;;11.40;99.90;;;;;;5007867;28;20095;-41
2023/11/06 09:47:15;;;;;;;0.30;0.30;;;11.40;99.90;;;;;;5005938;28;20029;-38
2023/11/06 09:49:56;;;;;;;1.93;0.40;;;11.50;99.90;;;;;;5003129;28;20061;-35
2023/11/06 09:52:22;;;;;;;1.17;0.70;;;11.50;99.90;;;;;;5009534;28;20029;-42
2023/11/06 09:54:50;;;;;;;0.40;0.40;;;11.40;99.90;;;;;;5008016;28;20387;-32
2023/11/06 09:57:17;;;;;;;1.57;0.57;;;11.40;99.90;;;;;;5007194;28;20037;-32
2023/11/06 09:59:42;;;;;;;1.17;0.40;;;11.40;99.90;;;;;;5002775;28;20423;-32
2023/11/06 10:02:08;;;;;;;0.75;0.43;;;11.50;99.90;;;;;;5006707;28;20034;-35
2023/11/06 10:04:36;;;;;;;0.55;0.43;;;11.40;99.90;;;;;;5006238;28;20022;-32
2023/11/06 10:07:02;;;;;;;0.60;0.53;;;11.60;99.90;;;;;;5005691;28;20065;-34
2023/11/06 10:09:28;;;;;;;0.60;0.40;;;11.60;99.90;;;;;;5007301;28;20103;-34
2023/11/06 10:11:57;;;;;;;0.90;0.47;;;11.60;99.90;;;;;;5006398;28;20423;-33
2023/11/06 10:14:37;;;;;;;0.57;0.50;;;11.60;99.90;;;;;;5005316;28;20037;-32
2023/11/06 10:17:03;;;;;;;1.75;0.45;;;11.50;99.90;;;;;;5004441;28;20133;-33
2023/11/06 10:19:30;;;;;;;0.47;0.40;;;11.50;99.90;;;;;;5006859;28;20109;-33
2023/11/06 10:21:56;;;;;;;0.40;0.40;;;11.70;99.90;;;;;;5015049;28;20038;-34
2023/11/06 10:24:22;;;;;;;1.15;1.08;;;11.80;99.90;;;;;;5007441;28;20049;-32
2023/11/06 10:26:47;;;;;;;0.63;0.35;;;11.80;99.90;;;;;;4990341;28;20031;-33
2023/11/06 10:29:14;;;;;;;0.80;0.52;;;11.80;99.90;;;;;;4992945;28;20034;-32
2023/11/06 10:31:42;;;;;;;0.40;0.35;;;11.70;99.90;;;;;;5005874;28;20036;-37
2023/11/06 10:34:24;;;;;;;0.90;0.30;;;11.60;99.90;;;;;;5007031;28;20517;-33
2023/11/06 10:37:13;;;;;;;0.20;0.20;;;11.60;99.90;;;;;;5005377;28;20088;-35
2023/11/06 10:39:40;;;;;;;1.08;0.47;;;11.60;99.90;;;;;;5004683;28;20028;-32
2023/11/06 10:42:08;;;;;;;2.10;0.40;;;11.70;99.90;;;;;;5002219;28;20032;-31
2023/11/06 10:44:36;;;;;;;1.50;0.45;;;11.70;99.90;;;;;;5001770;28;20113;-32
2023/11/06 10:47:09;;;;;;;0.43;0.37;;;11.90;99.90;;;;;;5007868;28;20045;-33
2023/11/06 10:49:53;;;;;;;1.45;0.30;;;11.90;99.90;;;;;;5006058;28;20038;-31
2023/11/06 10:52:19;;;;;;;0.38;0.35;;;11.90;99.90;;;;;;4990432;28;20033;-32
2023/11/06 10:54:47;;;;;;;0.30;0.30;;;12.00;99.90;;;;;;5005256;28;20029;-31
2023/11/06 10:57:17;;;;;;;0.20;0.20;;;12.10;99.90;;;;;;5006936;28;20040;-33
2023/11/06 10:59:44;;;;;;;0.77;0.30;;;12.10;99.90;;;;;;5004353;28;20046;-34
2023/11/06 11:02:34;;;;;;;1.08;0.40;;;12.10;99.90;;;;;;5007395;28;20460;-35
2023/11/06 11:05:01;;;;;;;1.02;0.80;;;12.20;99.90;;;;;;5007469;28;20026;-40
2023/11/06 11:07:30;;;;;;;4.32;0.77;;;12.20;99.90;;;;;;5005441;28;20029;-39
2023/11/06 11:09:57;;;;;;;1.52;0.40;;;12.30;99.90;;;;;;5007370;28;20104;-39
2023/11/06 11:12:23;;;;;;;1.20;0.30;;;12.30;99.90;;;;;;5004117;28;20483;-38
2023/11/06 11:14:49;;;;;;;0.47;0.38;;;12.30;99.90;;;;;;5003167;28;20058;-40
2023/11/06 11:17:15;;;;;;;1.02;0.95;;;12.30;99.90;;;;;;5003977;28;20030;-38
2023/11/06 11:19:42;;;;;;;0.93;0.50;;;12.50;99.90;;;;;;5005611;28;20040;-36
2023/11/06 11:22:13;;;;;;;0.40;0.40;;;12.50;99.90;;;;;;5007581;28;20503;-39
2023/11/06 11:24:41;;;;;;;0.70;0.40;;;12.50;99.90;;;;;;5004528;28;20036;-39
2023/11/06 11:27:11;;;;;;;0.50;0.50;;;12.50;99.90;;;;;;5004207;28;20368;-39
2023/11/06 11:30:10;;;;;;;1.05;0.63;;;12.60;99.90;;;;;;5007832;28;20033;-39
2023/11/06 11:32:37;;;;;;;0.20;0.20;;;12.50;99.90;;;;;;4975396;28;20304;-36
2023/11/06 11:35:13;;;;;;;0.88;0.47;;;12.50;99.90;;;;;;5006947;28;20461;-39
2023/11/06 11:37:39;;;;;;;1.98;0.50;;;12.40;99.90;;;;;;5004456;28;20073;-40
2023/11/06 11:40:07;;;;;;;0.85;0.43;;;12.40;99.90;;;;;;5004957;28;20141;-39
2023/11/06 11:42:33;;;;;;;;;;;12.40;99.90;;;;;;5010094;28;20475;-35
2023/11/06 11:45:07;;;;;;;0.65;0.38;;;12.40;99.90;;;;;;5007441;28;19939;-38
2023/11/06 11:47:48;;;;;;;0.65;0.57;;;12.50;99.90;;;;;;5004864;28;20048;-39
2023/11/06 11:50:41;;;;;;;0.30;0.30;;;12.60;99.90;;;;;;5003845;28;20092;-38
2023/11/06 11:53:08;;;;;;;0.50;0.50;;;12.70;99.90;;;;;;5005151;28;20034;-37
2023/11/06 11:55:39;;;;;;;0.40;0.40;;;12.60;99.90;;;;;;5006656;28;20076;-39
2023/11/06 11:58:09;;;;;;;0.43;0.43;;;12.70;99.90;;;;;;5002601;28;20621;-39
2023/11/06 12:00:36;;;;;;;0.50;0.50;;;12.60;99.90;;;;;;5005560;28;20398;-38
2023/11/06 12:03:07;;;;;;;1.45;0.45;;;12.70;99.90;;;;;;5006406;28;20031;-36
2023/11/06 12:05:33;;;;;;;0.60;0.43;;;12.70;99.90;;;;;;5006462;28;20034;-35
2023/11/06 12:07:59;;;;;;;0.32;0.32;;;12.60;99.90;;;;;;5004792;28;20037;-40
2023/11/06 12:10:29;;;;;;;1.25;0.52;;;12.70;99.90;;;;;;5006818;28;20092;-40
2023/11/06 12:12:58;;;;;;;0.63;0.57;;;12.60;99.90;;;;;;5001439;28;20045;-33
2023/11/06 12:15:33;;;;;;;1.10;0.50;;;12.50;99.90;;;;;;5003624;28;20312;-29
2023/11/06 12:18:06;;;;;;;0.50;0.50;;;12.40;99.90;;;;;;5007109;28;20543;-30
2023/11/06 12:20:32;;;;;;;0.32;0.32;;;12.40;99.90;;;;;;5006982;28;20443;-32
2023/11/06 12:23:02;;;;;;;0.93;0.50;;;12.50;99.90;;;;;;5008254;28;20022;-31
2023/11/06 12:25:31;;;;;;;0.57;0.43;;;12.60;99.90;;;;;;5002899;28;20480;-29
2023/11/06 12:28:03;;;;;;;1.30;0.60;;;12.60;99.90;;;;;;5004145;28;20515;-29
2023/11/06 12:30:29;;;;;;;0.40;0.22;;;12.70;99.90;;;;;;5003658;28;20026;-29
2023/11/06 12:32:55;;;;;;;0.70;0.50;;;12.80;99.90;;;;;;5006468;28;20053;-29
2023/11/06 12:35:21;;;;;;;0.93;0.40;;;13.00;99.90;;;;;;4981637;28;20136;-30
2023/11/06 12:37:52;;;;;;;0.40;0.40;;;13.00;99.90;;;;;;4990212;28;20530;-29
2023/11/06 12:40:22;;;;;;;1.10;0.47;;;13.10;99.90;;;;;;4985888;28;20038;-32
2023/11/06 12:42:50;;;;;;;0.80;0.55;;;13.10;99.90;;;;;;4983376;28;20066;-29
2023/11/06 12:45:37;;;;;;;0.30;0.30;;;13.00;99.90;;;;;;4984051;28;20110;-33
2023/11/06 12:48:20;;;;;;;0.30;0.30;;;12.90;99.90;;;;;;4983485;28;20102;-29
2023/11/06 12:51:07;;;;;;;0.95;0.43;;;12.90;99.90;;;;;;4986343;28;20030;-30
2023/11/06 12:53:35;;;;;;;0.55;0.55;;;12.90;99.90;;;;;;4988661;28;20114;-32
2023/11/06 12:56:02;;;;;;;0.40;0.40;;;12.90;99.90;;;;;;4987563;28;20527;-30